createdAt,value
2019-01-24T00:00:28.944Z,98771.09
2019-01-24T00:02:58.477Z,98768.40
2019-01-24T00:05:28.121Z,98776.41
2019-01-24T00:07:57.642Z,98778.25
2019-01-24T00:10:27.095Z,98782.66
2019-01-24T00:12:56.537Z,98783.26
2019-01-24T00:15:26.312Z,98781.55
2019-01-24T00:17:56.122Z,98782.72
2019-01-24T00:20:25.581Z,98784.81
2019-01-24T00:22:58.151Z,98790.02
2019-01-24T00:25:28.041Z,98799.84
2019-01-24T00:27:57.532Z,98803.56
2019-01-24T00:30:27.383Z,98802.23
2019-01-24T00:32:57.043Z,98800.39
2019-01-24T00:35:26.749Z,98809.28
2019-01-24T00:37:56.278Z,98802.33
2019-01-24T00:40:25.930Z,98811.06
2019-01-24T00:42:55.510Z,98812.78
2019-01-24T00:45:25.495Z,98814.00
2019-01-24T00:47:55.499Z,98817.91
2019-01-24T00:50:25.212Z,98822.59
2019-01-24T00:52:54.652Z,98821.75
2019-01-24T00:55:24.159Z,98822.43
2019-01-24T00:57:53.894Z,98821.67
2019-01-24T01:00:26.504Z,98824.54
2019-01-24T01:02:55.925Z,98823.66
2019-01-24T01:05:25.602Z,98822.22
2019-01-24T01:07:55.192Z,98824.88
2019-01-24T01:10:24.828Z,98828.00
2019-01-24T01:13:13.107Z,98831.89
2019-01-24T01:15:42.866Z,98835.84
2019-01-24T01:18:12.790Z,98847.02
2019-01-24T01:20:42.177Z,98848.25
2019-01-24T01:23:11.563Z,98847.95
2019-01-24T01:25:41.009Z,98847.70
2019-01-24T01:28:10.532Z,98847.98
2019-01-24T01:30:40.190Z,98845.95
2019-01-24T01:33:09.648Z,98850.50
2019-01-24T01:35:40.558Z,98862.67
2019-01-24T01:38:10.204Z,98859.45
2019-01-24T01:40:39.688Z,98858.52
2019-01-24T01:43:09.284Z,98863.34
2019-01-24T01:45:38.894Z,98864.03
2019-01-24T01:48:08.381Z,98861.16
2019-01-24T01:50:40.150Z,98862.29
2019-01-24T01:53:09.702Z,98869.64
2019-01-24T01:55:39.300Z,98866.31
2019-01-24T01:58:08.683Z,98871.77
2019-01-24T02:00:39.364Z,98879.08
2019-01-24T02:03:12.060Z,98883.20
2019-01-24T02:05:41.630Z,98877.88
2019-01-24T02:08:11.333Z,98879.92
2019-01-24T02:10:40.807Z,98886.72
2019-01-24T02:13:10.201Z,98887.05
2019-01-24T02:15:39.587Z,98886.69
2019-01-24T02:18:09.179Z,98888.94
2019-01-24T02:20:38.569Z,98885.53
2019-01-24T02:23:08.334Z,98887.46
2019-01-24T02:25:38.198Z,98885.59
2019-01-24T02:28:07.777Z,98892.34
2019-01-24T02:30:37.604Z,98895.28
2019-01-24T02:33:07.108Z,98894.75
2019-01-24T02:35:36.493Z,98900.52
2019-01-24T02:38:06.210Z,98900.16
2019-01-24T02:40:35.633Z,98898.05
2019-01-24T02:43:05.598Z,98904.34
2019-01-24T02:45:35.083Z,98900.28
2019-01-24T02:48:04.616Z,98900.24
2019-01-24T02:50:34.079Z,98901.77
2019-01-24T02:53:03.830Z,98903.89
2019-01-24T02:55:33.287Z,98901.63
2019-01-24T02:58:02.820Z,98902.23
2019-01-24T03:00:32.213Z,98900.08
2019-01-24T03:03:01.607Z,98902.41
2019-01-24T03:05:31.077Z,98903.84
2019-01-24T03:08:01.006Z,98901.81
2019-01-24T03:10:30.513Z,98897.81
2019-01-24T03:12:59.987Z,98894.38
2019-01-24T03:15:29.730Z,98898.53
2019-01-24T03:17:59.697Z,98902.16
2019-01-24T03:20:29.467Z,98905.51
2019-01-24T03:22:58.923Z,98909.96
2019-01-24T03:25:28.377Z,98910.37
2019-01-24T03:27:57.893Z,98915.51
2019-01-24T03:30:27.389Z,98911.20
2019-01-24T03:32:56.886Z,98914.72
2019-01-24T03:35:27.351Z,98910.27
2019-01-24T03:37:56.759Z,98915.66
2019-01-24T03:40:26.274Z,98917.91
2019-01-24T03:42:56.616Z,98912.06
2019-01-24T03:45:26.830Z,98916.16
2019-01-24T03:47:56.807Z,98917.83
2019-01-24T03:50:27.148Z,98927.41
2019-01-24T03:52:56.787Z,98928.45
2019-01-24T03:55:26.316Z,98931.78
2019-01-24T03:57:55.691Z,98944.34
2019-01-24T04:00:26.278Z,98937.83
2019-01-24T04:02:55.813Z,98947.47
2019-01-24T04:05:25.981Z,98947.27
2019-01-24T04:07:58.422Z,98942.30
2019-01-24T04:10:27.856Z,98945.58
2019-01-24T04:12:57.471Z,98951.98
2019-01-24T04:15:27.033Z,98956.11
2019-01-24T04:17:56.684Z,98958.89
2019-01-24T04:20:26.167Z,98963.44
2019-01-24T04:22:55.630Z,98962.69
2019-01-24T04:25:25.107Z,98969.09
2019-01-24T04:27:54.579Z,98967.48
2019-01-24T04:30:24.887Z,98972.70
2019-01-24T04:32:54.349Z,98965.97
2019-01-24T04:35:24.057Z,98973.77
2019-01-24T04:37:53.773Z,98974.38
2019-01-24T04:40:23.322Z,98975.85
2019-01-24T04:42:53.064Z,98978.38
2019-01-24T04:45:22.509Z,98977.31
2019-01-24T04:47:52.013Z,98981.42
2019-01-24T04:50:21.498Z,98985.44
2019-01-24T04:52:50.973Z,98987.11
2019-01-24T04:55:21.094Z,98986.09
2019-01-24T04:57:51.458Z,98987.58
2019-01-24T05:00:25.663Z,98991.34
2019-01-24T05:02:55.961Z,98992.92
2019-01-24T05:05:27.899Z,98998.58
2019-01-24T05:07:56.977Z,99005.65
2019-01-24T05:10:26.578Z,99003.09
2019-01-24T05:12:56.134Z,99004.50
2019-01-24T05:15:25.906Z,99009.20
2019-01-24T05:17:57.468Z,99007.69
2019-01-24T05:20:27.288Z,99003.27
2019-01-24T05:23:01.279Z,99004.86
2019-01-24T05:25:33.913Z,99003.55
2019-01-24T05:28:03.362Z,99001.16
2019-01-24T05:30:32.883Z,99007.84
2019-01-24T05:33:02.314Z,99004.69
2019-01-24T05:35:34.936Z,99004.33
2019-01-24T05:38:03.278Z,99012.24
2019-01-24T05:40:33.065Z,99010.14
2019-01-24T05:43:03.253Z,99006.30
2019-01-24T05:45:32.755Z,99005.08
2019-01-24T05:48:02.206Z,99007.56
2019-01-24T05:50:31.662Z,99004.08
2019-01-24T05:53:01.037Z,99002.20
2019-01-24T05:55:39.932Z,98999.47
2019-01-24T05:58:09.340Z,98999.69
2019-01-24T06:00:40.396Z,99007.73
2019-01-24T06:03:09.857Z,99009.34
2019-01-24T06:05:41.921Z,99005.55
2019-01-24T06:08:11.448Z,99009.73
2019-01-24T06:10:41.409Z,99013.62
2019-01-24T06:13:11.112Z,99014.20
2019-01-24T06:15:40.467Z,99016.43
2019-01-24T06:18:10.123Z,99016.05
2019-01-24T06:20:39.645Z,99008.94
2019-01-24T06:23:09.053Z,99013.52
2019-01-24T06:25:38.582Z,99015.75
2019-01-24T06:28:08.073Z,99012.68
2019-01-24T06:30:37.561Z,99013.42
2019-01-24T06:33:07.037Z,99018.50
2019-01-24T06:35:36.613Z,99029.27
2019-01-24T06:38:07.757Z,99033.20
2019-01-24T06:40:37.264Z,99031.37
2019-01-24T06:43:07.194Z,99032.39
2019-01-24T06:45:39.171Z,99036.58
2019-01-24T06:48:09.262Z,99039.61
2019-01-24T06:50:41.562Z,99039.66
2019-01-24T06:53:13.102Z,99053.27
2019-01-24T06:55:44.834Z,99058.70
2019-01-24T06:58:14.488Z,99064.59
2019-01-24T07:00:44.578Z,99067.47
2019-01-24T07:03:14.219Z,99068.72
2019-01-24T07:05:43.960Z,99065.73
2019-01-24T07:08:13.942Z,99069.39
2019-01-24T07:10:43.637Z,99078.37
2019-01-24T07:13:13.124Z,99079.52
2019-01-24T07:15:43.209Z,99090.58
2019-01-24T07:18:12.820Z,99084.87
2019-01-24T07:20:42.205Z,99089.92
2019-01-24T07:23:11.564Z,99096.52
2019-01-24T07:25:41.233Z,99109.02
2019-01-24T07:28:11.763Z,99124.60
2019-01-24T07:30:41.154Z,99131.78
2019-01-24T07:33:10.854Z,99140.28
2019-01-24T07:35:40.263Z,99143.97
2019-01-24T07:38:09.622Z,99153.48
2019-01-24T07:40:39.034Z,99151.80
2019-01-24T07:43:08.381Z,99155.08
2019-01-24T07:48:21.014Z,99152.39
2019-01-24T07:50:50.770Z,99167.86
2019-01-24T07:53:33.797Z,99171.35
2019-01-24T07:55:55.196Z,99172.69
2019-01-24T07:58:30.855Z,99177.37
2019-01-24T08:01:03.697Z,99183.78
2019-01-24T08:03:35.230Z,99188.61
2019-01-24T08:06:09.042Z,99191.83
2019-01-24T08:08:36.816Z,99190.56
2019-01-24T08:11:07.776Z,99189.33
2019-01-24T08:13:37.592Z,99192.87
2019-01-24T08:16:08.154Z,99192.33
2019-01-24T08:18:40.828Z,99194.98
2019-01-24T08:21:10.552Z,99202.17
2019-01-24T08:23:40.169Z,99201.64
2019-01-24T08:26:10.053Z,99204.79
2019-01-24T08:28:43.428Z,99208.05
2019-01-24T08:31:18.149Z,99201.05
2019-01-24T08:33:47.298Z,99200.42
2019-01-24T08:36:18.675Z,99202.73
2019-01-24T08:38:48.340Z,99199.97
2019-01-24T08:41:18.003Z,99199.91
2019-01-24T08:43:47.587Z,99200.23
2019-01-24T08:46:17.531Z,99199.05
2019-01-24T08:48:51.344Z,99194.99
2019-01-24T08:51:23.532Z,99191.29
2019-01-24T08:53:53.236Z,99190.83
2019-01-24T08:56:22.924Z,99188.84
2019-01-24T08:58:52.755Z,99186.06
2019-01-24T09:01:22.488Z,99180.67
2019-01-24T09:03:52.859Z,99194.50
2019-01-24T09:06:22.854Z,99187.20
2019-01-24T09:08:54.248Z,99186.65
2019-01-24T09:11:24.777Z,99181.38
2019-01-24T09:13:54.427Z,99183.14
2019-01-24T09:16:24.107Z,99180.91
2019-01-24T09:18:54.094Z,99180.56
2019-01-24T09:21:23.870Z,99182.67
2019-01-24T09:23:53.793Z,99183.04
2019-01-24T09:26:25.559Z,99178.76
2019-01-24T09:28:56.502Z,99175.72
2019-01-24T09:31:27.811Z,99175.94
2019-01-24T09:33:57.507Z,99176.33
2019-01-24T09:36:29.307Z,99184.48
2019-01-24T09:39:00.529Z,99184.16
2019-01-24T09:41:30.266Z,99193.08
2019-01-24T09:43:59.929Z,99193.26
2019-01-24T09:46:29.912Z,99196.58
2019-01-24T09:48:59.322Z,99197.58
2019-01-24T09:51:29.112Z,99193.53
2019-01-24T09:54:03.235Z,99202.50
2019-01-24T09:56:33.027Z,99202.78
2019-01-24T09:59:03.022Z,99207.80
2019-01-24T10:01:32.831Z,99216.78
2019-01-24T10:04:05.835Z,99215.75
2019-01-24T10:06:38.605Z,99222.84
2019-01-24T10:09:11.266Z,99227.83
2019-01-24T10:11:40.595Z,99227.58
2019-01-24T10:14:16.196Z,99234.78
2019-01-24T10:16:47.418Z,99235.36
2019-01-24T10:19:17.167Z,99239.52
2019-01-24T10:21:47.091Z,99247.98
2019-01-24T10:24:20.186Z,99244.88
2019-01-24T10:26:49.620Z,99246.14
2019-01-24T10:29:28.181Z,99241.53
2019-01-24T10:31:58.810Z,99236.19
2019-01-24T10:34:28.294Z,99235.86
2019-01-24T10:36:57.971Z,99232.99
2019-01-24T10:39:27.821Z,99239.80
2019-01-24T10:41:57.589Z,99234.02
2019-01-24T10:44:32.628Z,99231.18
2019-01-24T10:47:03.313Z,99235.77
2019-01-24T10:49:33.026Z,99239.13
2019-01-24T10:52:03.687Z,99239.69
2019-01-24T10:54:34.730Z,99233.34
2019-01-24T10:57:04.580Z,99243.12
2019-01-24T10:59:36.875Z,99241.34
2019-01-24T11:02:06.933Z,99239.29
2019-01-24T11:04:37.211Z,99234.94
2019-01-24T11:07:07.022Z,99226.44
2019-01-24T11:09:38.665Z,99231.64
2019-01-24T11:12:11.740Z,99228.80
2019-01-24T11:14:41.907Z,99228.63
2019-01-24T11:17:11.754Z,99230.50
2019-01-24T11:19:42.240Z,99237.13
2019-01-24T11:22:13.734Z,99239.41
2019-01-24T11:24:50.546Z,99226.90
2019-01-24T11:27:21.951Z,99229.92
2019-01-24T11:29:53.061Z,99230.19
2019-01-24T11:32:36.547Z,99234.86
2019-01-24T11:35:24.553Z,99235.73
2019-01-24T11:38:27.684Z,99227.92
2019-01-24T11:41:07.885Z,99228.50
2019-01-24T11:43:43.798Z,99225.27
2019-01-24T11:46:27.685Z,99224.53
2019-01-24T11:48:57.848Z,99220.00
2019-01-24T11:51:27.922Z,99220.58
2019-01-24T11:54:05.135Z,99227.44
2019-01-24T11:56:37.483Z,99237.92
2019-01-24T11:59:07.475Z,99232.19
2019-01-24T12:01:37.276Z,99227.20
2019-01-24T12:04:07.369Z,99220.98
2019-01-24T12:06:37.373Z,99235.25
2019-01-24T12:09:10.463Z,99238.50
2019-01-24T12:11:40.348Z,99242.91
2019-01-24T12:14:09.979Z,99238.87
2019-01-24T12:16:42.143Z,99242.68
2019-01-24T12:19:12.165Z,99242.60
2019-01-24T12:21:42.098Z,99231.66
2019-01-24T12:24:12.063Z,99229.48
2019-01-24T12:26:43.426Z,99231.58
2019-01-24T12:29:13.307Z,99226.39
2019-01-24T12:31:42.897Z,99218.88
2019-01-24T12:34:12.949Z,99216.87
2019-01-24T12:36:44.314Z,99217.80
2019-01-24T12:39:15.704Z,99231.13
2019-01-24T12:41:45.371Z,99231.81
2019-01-24T12:44:15.467Z,99233.98
2019-01-24T12:46:45.430Z,99239.77
2019-01-24T12:49:15.712Z,99230.34
2019-01-24T12:54:56.970Z,99228.06
2019-01-24T12:57:29.565Z,99227.61
2019-01-24T12:59:59.871Z,99227.80
2019-01-24T13:02:34.105Z,99227.19
2019-01-24T13:05:04.085Z,99225.23
2019-01-24T13:07:33.633Z,99228.53
2019-01-24T13:10:05.129Z,99223.20
2019-01-24T13:12:35.189Z,99226.82
2019-01-24T13:17:44.895Z,99241.77
2019-01-24T13:20:17.544Z,99249.44
2019-01-24T13:22:51.495Z,99254.59
2019-01-24T13:25:24.608Z,99248.35
2019-01-24T13:27:54.474Z,99251.23
2019-01-24T13:30:30.253Z,99246.84
2019-01-24T13:33:02.077Z,99241.38
2019-01-24T13:35:31.737Z,99240.59
2019-01-24T13:38:01.535Z,99240.03
2019-01-24T13:40:33.563Z,99242.70
2019-01-24T13:43:22.249Z,99241.77
2019-01-24T13:45:51.685Z,99240.25
2019-01-24T13:48:21.050Z,99246.06
2019-01-24T13:50:50.425Z,99245.36
2019-01-24T13:53:19.788Z,99242.78
2019-01-24T13:55:49.157Z,99240.41
2019-01-24T13:58:18.517Z,99236.31
2019-01-24T14:00:47.905Z,99235.83
2019-01-24T14:03:25.263Z,99234.94
2019-01-24T14:05:55.108Z,99232.23
2019-01-24T14:08:24.984Z,99239.15
2019-01-24T14:11:07.383Z,99245.28
2019-01-24T14:13:37.320Z,99244.83
2019-01-24T14:16:13.774Z,99252.01
2019-01-24T14:18:43.885Z,99253.22
2019-01-24T14:21:16.185Z,99256.22
2019-01-24T14:23:48.049Z,99256.72
2019-01-24T14:26:22.436Z,99259.84
2019-01-24T14:28:59.324Z,99256.10
2019-01-24T14:31:29.124Z,99253.21
2019-01-24T14:34:00.146Z,99257.56
2019-01-24T14:36:29.605Z,99262.75
2019-01-24T14:38:59.524Z,99262.00
2019-01-24T14:41:29.252Z,99269.75
2019-01-24T14:43:59.178Z,99266.83
2019-01-24T14:46:32.377Z,99269.35
2019-01-24T14:49:03.966Z,99267.45
2019-01-24T14:51:33.869Z,99262.94
2019-01-24T14:54:10.294Z,99261.66
2019-01-24T14:56:43.181Z,99265.99
2019-01-24T14:59:13.032Z,99266.09
2019-01-24T15:01:42.924Z,99266.83
2019-01-24T15:04:31.617Z,99270.03
2019-01-24T15:07:00.998Z,99267.22
2019-01-24T15:09:30.367Z,99276.70
2019-01-24T15:11:59.746Z,99278.16
2019-01-24T15:14:29.120Z,99282.80
2019-01-24T15:16:58.494Z,99293.62
2019-01-24T15:19:28.013Z,99299.08
2019-01-24T15:21:57.390Z,99299.13
2019-01-24T15:24:26.761Z,99302.36
2019-01-24T15:26:56.148Z,99313.03
2019-01-24T15:29:25.518Z,99320.98
2019-01-24T15:31:54.888Z,99322.85
2019-01-24T15:34:24.259Z,99322.03
2019-01-24T15:36:53.640Z,99321.34
2019-01-24T15:39:23.248Z,99322.41
2019-01-24T15:41:52.626Z,99329.14
2019-01-24T15:44:21.995Z,99338.66
2019-01-24T15:46:51.364Z,99328.25
2019-01-24T15:49:20.976Z,99324.34
2019-01-24T15:51:50.350Z,99322.81
2019-01-24T15:54:19.741Z,99326.52
2019-01-24T15:56:49.118Z,99325.61
2019-01-24T15:59:18.497Z,99331.03
2019-01-24T16:01:47.934Z,99339.31
2019-01-24T16:04:19.856Z,99335.13
2019-01-24T16:06:48.391Z,99341.42
2019-01-24T16:09:17.759Z,99344.46
2019-01-24T16:11:47.143Z,99341.68
2019-01-24T16:14:16.509Z,99341.05
2019-01-24T16:16:45.900Z,99344.32
2019-01-24T16:19:19.326Z,99344.23
2019-01-24T16:21:49.643Z,99344.70
2019-01-24T16:24:19.014Z,99343.65
2019-01-24T16:26:48.388Z,99344.59
2019-01-24T16:29:17.760Z,99350.02
2019-01-24T16:31:47.137Z,99349.64
2019-01-24T16:34:16.512Z,99354.17
2019-01-24T16:36:45.923Z,99347.55
2019-01-24T16:39:15.297Z,99351.56
2019-01-24T16:41:44.694Z,99350.12
2019-01-24T16:44:14.073Z,99346.74
2019-01-24T16:46:43.937Z,99345.17
2019-01-24T16:49:13.343Z,99346.05
2019-01-24T16:51:42.731Z,99352.05
2019-01-24T16:54:12.106Z,99355.23
2019-01-24T16:56:41.475Z,99360.28
2019-01-24T16:59:10.830Z,99363.88
2019-01-24T17:01:40.373Z,99361.29
2019-01-24T17:04:09.760Z,99364.97
2019-01-24T17:06:39.766Z,99369.72
2019-01-24T17:09:10.754Z,99367.75
2019-01-24T17:11:40.238Z,99372.73
2019-01-24T17:14:09.605Z,99373.86
2019-01-24T17:16:39.036Z,99376.62
2019-01-24T17:19:08.712Z,99382.89
2019-01-24T17:21:38.097Z,99388.49
2019-01-24T17:24:07.527Z,99385.20
2019-01-24T17:26:36.906Z,99388.42
2019-01-24T17:29:06.409Z,99394.73
2019-01-24T17:31:36.090Z,99395.19
2019-01-24T17:34:05.578Z,99392.69
2019-01-24T17:36:35.238Z,99389.09
2019-01-24T17:39:07.217Z,99393.21
2019-01-24T17:41:36.603Z,99397.84
2019-01-24T17:44:06.030Z,99401.13
2019-01-24T17:46:35.414Z,99404.86
2019-01-24T17:49:05.129Z,99404.55
2019-01-24T17:51:34.501Z,99401.73
2019-01-24T17:54:03.931Z,99410.03
2019-01-24T17:56:33.698Z,99409.20
2019-01-24T17:59:03.323Z,99409.41
2019-01-24T18:01:32.711Z,99414.37
2019-01-24T18:04:02.075Z,99415.78
2019-01-24T18:06:31.477Z,99414.81
2019-01-24T18:09:01.164Z,99419.05
2019-01-24T18:11:30.546Z,99422.98
2019-01-24T18:13:59.918Z,99421.66
2019-01-24T18:16:29.357Z,99423.06
2019-01-24T18:18:59.077Z,99430.63
2019-01-24T18:21:29.210Z,99434.25
2019-01-24T18:23:58.590Z,99421.33
2019-01-24T18:26:28.014Z,99422.84
2019-01-24T18:28:57.466Z,99432.36
2019-01-24T18:31:27.074Z,99443.91
2019-01-24T18:33:56.472Z,99446.68
2019-01-24T18:36:25.899Z,99448.19
2019-01-24T18:38:55.340Z,99454.61
2019-01-24T18:41:25.028Z,99448.23
2019-01-24T18:43:54.457Z,99451.56
2019-01-24T18:46:23.840Z,99450.88
2019-01-24T18:48:53.679Z,99455.13
2019-01-24T18:51:23.056Z,99461.08
2019-01-24T18:53:52.703Z,99461.64
2019-01-24T18:56:22.341Z,99454.42
2019-01-24T18:58:51.770Z,99460.69
2019-01-24T19:01:21.147Z,99463.06
2019-01-24T19:03:51.632Z,99464.45
2019-01-24T19:06:20.998Z,99464.84
2019-01-24T19:08:50.595Z,99461.84
2019-01-24T19:11:19.974Z,99459.52
2019-01-24T19:13:49.357Z,99459.66
2019-01-24T19:16:18.976Z,99455.31
2019-01-24T19:18:48.623Z,99458.28
2019-01-24T19:21:18.222Z,99467.22
2019-01-24T19:23:48.910Z,99479.22
2019-01-24T19:26:18.271Z,99477.67
2019-01-24T19:28:47.638Z,99481.95
2019-01-24T19:31:17.300Z,99481.96
2019-01-24T19:33:46.915Z,99487.22
2019-01-24T19:36:16.281Z,99484.71
2019-01-24T19:38:45.673Z,99478.34
2019-01-24T19:41:15.074Z,99480.42
2019-01-24T19:43:44.438Z,99484.23
2019-01-24T19:46:13.804Z,99485.00
2019-01-24T19:48:43.176Z,99482.44
2019-01-24T19:51:12.809Z,99482.36
2019-01-24T19:53:42.207Z,99484.67
2019-01-24T19:56:11.714Z,99482.83
2019-01-24T19:58:41.109Z,99487.43
2019-01-24T20:01:10.851Z,99488.95
2019-01-24T20:03:40.220Z,99484.72
2019-01-24T20:06:09.937Z,99482.94
2019-01-24T20:08:39.821Z,99478.84
2019-01-24T20:11:09.268Z,99480.63
2019-01-24T20:13:38.670Z,99484.60
2019-01-24T20:16:08.309Z,99490.02
2019-01-24T20:18:37.688Z,99486.94
2019-01-24T20:21:07.186Z,99488.36
2019-01-24T20:23:36.587Z,99479.50
2019-01-24T20:26:06.596Z,99480.07
2019-01-24T20:28:35.988Z,99489.38
2019-01-24T20:31:05.896Z,99488.55
2019-01-24T20:33:35.346Z,99496.91
2019-01-24T20:36:05.227Z,99494.33
2019-01-24T20:38:34.916Z,99487.46
2019-01-24T20:41:04.359Z,99483.14
2019-01-24T20:43:35.442Z,99488.55
2019-01-24T20:46:05.127Z,99491.92
2019-01-24T20:48:34.523Z,99500.00
2019-01-24T20:51:03.894Z,99498.53
2019-01-24T20:53:33.335Z,99496.59
2019-01-24T20:56:02.846Z,99494.78
2019-01-24T20:58:32.217Z,99496.13
2019-01-24T21:01:01.653Z,99498.13
2019-01-24T21:03:31.036Z,99503.79
2019-01-24T21:06:01.035Z,99503.49
2019-01-24T21:08:31.531Z,99508.17
2019-01-24T21:11:00.898Z,99503.00
2019-01-24T21:13:30.288Z,99506.14
2019-01-24T21:15:59.637Z,99509.55
2019-01-24T21:18:29.024Z,99500.18
2019-01-24T21:20:58.389Z,99501.54
2019-01-24T21:23:27.765Z,99498.50
2019-01-24T21:29:16.594Z,99503.70
2019-01-24T21:41:10.794Z,99494.46
2019-01-24T21:43:58.728Z,99500.77
2019-01-24T21:46:28.550Z,99501.60
2019-01-24T21:49:24.574Z,99501.94
2019-01-24T21:51:55.155Z,99497.11
2019-01-24T21:54:24.821Z,99498.36
2019-01-24T21:57:07.584Z,99497.87
2019-01-24T21:59:37.527Z,99499.39
2019-01-24T22:02:07.407Z,99495.83
2019-01-24T22:04:48.006Z,99500.38
2019-01-24T22:07:17.646Z,99501.32
2019-01-24T22:09:53.293Z,99503.64
2019-01-24T22:12:22.976Z,99504.77
2019-01-24T22:14:57.013Z,99504.31
2019-01-24T22:17:26.767Z,99509.36
2019-01-24T22:19:56.985Z,99509.19
2019-01-24T22:22:26.463Z,99513.89
2019-01-24T22:24:56.435Z,99517.44
2019-01-24T22:27:25.959Z,99518.56
2019-01-24T22:30:07.702Z,99518.83
2019-01-24T22:32:37.158Z,99513.30
2019-01-24T22:35:07.798Z,99518.09
2019-01-24T22:37:37.473Z,99517.19
2019-01-24T22:40:11.662Z,99516.87
2019-01-24T22:42:41.186Z,99517.02
2019-01-24T22:45:15.353Z,99515.69
2019-01-24T22:47:44.971Z,99519.75
2019-01-24T22:50:16.742Z,99524.75
2019-01-24T22:52:47.077Z,99524.29
2019-01-24T22:55:17.109Z,99534.22
2019-01-24T22:57:48.065Z,99532.84
2019-01-24T23:00:50.095Z,99532.16
2019-01-24T23:03:41.530Z,99532.08
2019-01-24T23:06:11.778Z,99539.75
2019-01-24T23:08:41.204Z,99539.06
2019-01-24T23:11:10.747Z,99540.17
2019-01-24T23:13:40.251Z,99534.00
2019-01-24T23:16:09.986Z,99544.13
2019-01-24T23:18:43.450Z,99539.59
2019-01-24T23:24:10.260Z,99540.69
2019-01-24T23:26:40.016Z,99546.58
2019-01-24T23:29:09.387Z,99546.14
2019-01-24T23:31:38.910Z,99548.94
2019-01-24T23:34:08.685Z,99547.09
2019-01-24T23:36:38.426Z,99547.91
2019-01-24T23:39:09.598Z,99546.92
2019-01-24T23:41:39.037Z,99541.77
2019-01-24T23:44:08.573Z,99544.42
2019-01-24T23:46:38.068Z,99538.16
2019-01-24T23:49:07.590Z,99538.02
2019-01-24T23:51:37.065Z,99542.04
2019-01-24T23:54:06.591Z,99540.97
2019-01-24T23:56:36.239Z,99545.95
2019-01-24T23:59:05.865Z,99543.77
